Time;durP1;ratioP1;P1;durP2;ratioP2;P2;SDS_P1;SDS_P2;PMS_P1;PMS_P2;Temp;Humidity;BMP_temperature;BMP_pressure;BME280_temperature;BME280_humidity;BME280_pressure;Samples;Min_cycle;Max_cycle;Signal;HPM_P1;HPM_P2
2022/08/16 00:00:24;;;;;;;4.90;3.40;;;17.60;99.90;;;;;;5055192;28;20253;-87
2022/08/16 00:02:52;;;;;;;4.85;3.22;;;17.70;99.90;;;;;;5053983;28;20205;-86
2022/08/16 00:05:20;;;;;;;4.28;3.17;;;17.70;99.90;;;;;;5037078;28;20182;-87
2022/08/16 00:07:46;;;;;;;3.40;3.07;;;17.70;99.90;;;;;;5053971;28;20249;-87
2022/08/16 00:10:15;;;;;;;3.80;3.40;;;17.80;99.90;;;;;;5036975;28;20184;-86
2022/08/16 00:12:41;;;;;;;5.22;3.03;;;17.80;99.90;;;;;;5037416;28;20232;-86
2022/08/16 00:15:13;;;;;;;3.97;2.83;;;17.80;99.90;;;;;;5053665;28;20182;-86
2022/08/16 00:17:39;;;;;;;4.07;3.57;;;17.80;99.90;;;;;;5037080;28;20170;-87
2022/08/16 00:20:09;;;;;;;4.47;3.13;;;17.70;99.90;;;;;;5053899;28;20177;-86
2022/08/16 00:22:37;;;;;;;6.28;3.13;;;17.60;99.90;;;;;;5053619;28;20210;-86
2022/08/16 00:25:07;;;;;;;3.40;3.00;;;17.60;99.90;;;;;;5037121;28;20210;-87
2022/08/16 00:27:33;;;;;;;5.10;3.30;;;17.50;99.90;;;;;;5036837;28;20178;-87
2022/08/16 00:29:59;;;;;;;4.90;2.90;;;17.50;99.90;;;;;;5036699;28;20178;-87
2022/08/16 00:32:25;;;;;;;5.57;3.17;;;17.50;99.90;;;;;;5053350;28;20224;-87
2022/08/16 00:34:51;;;;;;;6.03;3.17;;;17.50;99.90;;;;;;5036981;28;20276;-86
2022/08/16 00:37:17;;;;;;;3.60;3.30;;;17.50;99.90;;;;;;5036952;28;20250;-86
2022/08/16 00:39:43;;;;;;;4.07;3.25;;;17.40;99.90;;;;;;5036678;28;20592;-87
2022/08/16 00:42:09;;;;;;;3.75;3.38;;;17.40;99.90;;;;;;5036572;28;20259;-87
2022/08/16 00:44:38;;;;;;;5.97;3.10;;;17.30;99.90;;;;;;5036674;28;20181;-86
2022/08/16 00:47:08;;;;;;;5.87;3.50;;;17.30;99.90;;;;;;5035359;28;20174;-86
2022/08/16 00:49:35;;;;;;;3.97;3.40;;;17.30;99.90;;;;;;5053316;28;20181;-86
2022/08/16 00:52:14;;;;;;;4.87;3.63;;;17.40;99.90;;;;;;5036123;28;20201;-86
2022/08/16 00:54:41;;;;;;;4.23;3.50;;;17.50;99.90;;;;;;5036458;28;20181;-86
2022/08/16 00:57:07;;;;;;;4.13;3.73;;;17.40;99.90;;;;;;5036391;28;20281;-87
2022/08/16 00:59:35;;;;;;;6.03;3.80;;;17.40;99.90;;;;;;5054236;28;20252;-86
2022/08/16 01:02:05;;;;;;;5.77;4.13;;;17.30;99.90;;;;;;5035981;28;20206;-86
2022/08/16 01:04:31;;;;;;;5.33;4.17;;;17.30;99.90;;;;;;5036284;28;20174;-87
2022/08/16 01:07:01;;;;;;;8.60;3.97;;;17.20;99.90;;;;;;5036299;28;20273;-87
2022/08/16 01:09:27;;;;;;;4.30;3.90;;;17.10;99.90;;;;;;5036092;28;20210;-86
2022/08/16 01:11:54;;;;;;;3.97;3.57;;;17.20;99.90;;;;;;5035622;28;20212;-87
2022/08/16 01:14:35;;;;;;;4.20;3.90;;;17.20;99.90;;;;;;5036098;28;20253;-86
2022/08/16 01:17:03;;;;;;;4.93;4.30;;;17.10;99.90;;;;;;5052729;28;20208;-87
2022/08/16 01:19:31;;;;;;;6.40;4.20;;;17.00;99.90;;;;;;5036211;28;20181;-86
2022/08/16 01:22:02;;;;;;;4.40;4.00;;;17.00;99.90;;;;;;5052281;28;20214;-87
2022/08/16 01:24:52;;;;;;;4.93;4.23;;;17.00;99.90;;;;;;5036326;28;20193;-86
2022/08/16 01:27:22;;;;;;;4.63;4.20;;;17.00;99.90;;;;;;5035935;28;20178;-87
2022/08/16 01:29:59;;;;;;;4.67;4.20;;;17.00;99.90;;;;;;5035720;28;20220;-87
2022/08/16 01:32:28;;;;;;;4.73;4.07;;;16.90;99.90;;;;;;5036081;28;20201;-88
2022/08/16 01:34:54;;;;;;;4.90;4.40;;;16.90;99.90;;;;;;5035657;28;20205;-86
2022/08/16 01:37:20;;;;;;;4.83;4.33;;;16.90;99.90;;;;;;5035741;28;20232;-86
2022/08/16 01:39:47;;;;;;;5.43;4.13;;;16.90;99.90;;;;;;5035613;28;20177;-87
2022/08/16 01:42:13;;;;;;;5.73;4.10;;;16.90;99.90;;;;;;5035567;28;20213;-86
2022/08/16 01:44:40;;;;;;;4.27;3.97;;;16.90;99.90;;;;;;5052381;28;20191;-86
2022/08/16 01:47:07;;;;;;;6.13;4.10;;;17.00;99.90;;;;;;5035374;28;20261;-86
2022/08/16 01:49:40;;;;;;;4.90;3.70;;;17.10;99.90;;;;;;5035394;28;20186;-86
2022/08/16 01:52:10;;;;;;;4.67;3.87;;;17.10;99.90;;;;;;5035131;28;20213;-87
2022/08/16 01:54:57;;;;;;;4.23;3.93;;;17.10;99.90;;;;;;5038625;28;20178;-86
2022/08/16 01:57:24;;;;;;;4.80;3.90;;;17.00;99.90;;;;;;5035284;28;20235;-86
2022/08/16 01:59:51;;;;;;;4.97;3.90;;;17.00;99.90;;;;;;5051410;28;20192;-87
2022/08/16 02:02:18;;;;;;;5.23;3.50;;;16.90;99.90;;;;;;5035411;28;20206;-86
2022/08/16 02:04:44;;;;;;;4.50;3.80;;;16.80;99.90;;;;;;5035157;28;20174;-87
2022/08/16 02:07:12;;;;;;;5.37;4.00;;;16.80;99.90;;;;;;5035218;28;20195;-86
2022/08/16 02:09:40;;;;;;;4.17;3.77;;;16.70;99.90;;;;;;5035572;28;20201;-87
2022/08/16 02:12:08;;;;;;;3.97;3.57;;;16.60;99.90;;;;;;5034827;28;20263;-87
2022/08/16 02:14:37;;;;;;;4.73;4.10;;;16.60;99.90;;;;;;5052063;28;20176;-86
2022/08/16 02:17:05;;;;;;;5.17;4.73;;;16.50;99.90;;;;;;5034833;28;20245;-87
2022/08/16 02:19:34;;;;;;;6.07;4.47;;;16.40;99.90;;;;;;5035167;28;20181;-86
2022/08/16 02:22:01;;;;;;;4.70;4.30;;;16.20;99.90;;;;;;5051033;28;20209;-86
2022/08/16 02:24:28;;;;;;;4.83;3.93;;;16.30;99.90;;;;;;5034997;28;20189;-86
2022/08/16 02:26:55;;;;;;;6.07;4.00;;;16.30;99.90;;;;;;5035144;28;20220;-86
2022/08/16 02:29:22;;;;;;;4.23;3.80;;;16.30;99.90;;;;;;5051787;28;20200;-86
2022/08/16 02:31:50;;;;;;;5.37;3.87;;;16.30;99.90;;;;;;5034538;28;20198;-87
2022/08/16 02:34:18;;;;;;;6.27;4.30;;;16.30;99.90;;;;;;5034751;28;20196;-86
2022/08/16 02:36:45;;;;;;;6.20;4.37;;;16.30;99.90;;;;;;5034767;28;20177;-86
2022/08/16 02:39:13;;;;;;;5.23;4.57;;;16.40;99.90;;;;;;5051389;28;20220;-87
2022/08/16 02:41:43;;;;;;;5.07;4.00;;;16.40;99.90;;;;;;5034386;28;20240;-86
2022/08/16 02:44:11;;;;;;;4.43;4.00;;;16.40;99.90;;;;;;5035085;28;20207;-86
2022/08/16 02:46:39;;;;;;;4.20;3.90;;;16.40;99.90;;;;;;5034862;28;20185;-87
2022/08/16 02:49:07;;;;;;;4.60;3.80;;;16.40;99.90;;;;;;5034719;28;20206;-87
2022/08/16 02:51:34;;;;;;;4.40;4.00;;;16.50;99.90;;;;;;5034489;28;20194;-86
2022/08/16 02:54:00;;;;;;;5.00;4.23;;;16.50;99.90;;;;;;5034786;28;20200;-86
2022/08/16 02:56:28;;;;;;;5.67;3.77;;;16.50;99.90;;;;;;5034420;28;20185;-87
2022/08/16 02:58:54;;;;;;;5.37;4.20;;;16.60;99.90;;;;;;5034985;28;20174;-86
2022/08/16 03:01:24;;;;;;;5.20;4.20;;;16.70;99.90;;;;;;5034183;28;20184;-86
2022/08/16 03:03:53;;;;;;;5.43;4.23;;;16.70;99.90;;;;;;5034604;28;20205;-87
2022/08/16 03:06:20;;;;;;;5.50;3.80;;;16.70;99.90;;;;;;5051323;28;20231;-86
2022/08/16 03:08:49;;;;;;;5.77;4.40;;;16.70;99.90;;;;;;5034546;28;20232;-86
2022/08/16 03:11:17;;;;;;;4.63;3.97;;;16.80;99.90;;;;;;5035544;28;20263;-86
2022/08/16 03:13:46;;;;;;;6.43;4.43;;;16.80;99.90;;;;;;5038535;28;20174;-86
2022/08/16 03:16:12;;;;;;;4.77;4.37;;;16.70;99.90;;;;;;5038249;28;20748;-86
2022/08/16 03:18:40;;;;;;;5.73;4.50;;;16.70;99.90;;;;;;5038406;28;20178;-86
2022/08/16 03:21:08;;;;;;;4.70;4.20;;;16.70;99.90;;;;;;5038062;28;20213;-87
2022/08/16 03:23:34;;;;;;;6.53;4.47;;;16.60;99.90;;;;;;5038158;28;20209;-86
2022/08/16 03:26:00;;;;;;;6.20;4.60;;;16.50;99.90;;;;;;5055158;28;20192;-86
2022/08/16 03:28:26;;;;;;;5.83;4.23;;;16.50;99.90;;;;;;5038276;28;20174;-86
2022/08/16 03:30:53;;;;;;;5.40;4.17;;;16.50;99.90;;;;;;5054383;28;20255;-87
2022/08/16 03:33:20;;;;;;;5.03;4.40;;;16.50;99.90;;;;;;5054519;28;20209;-87
2022/08/16 03:35:58;;;;;;;6.83;4.50;;;16.50;99.90;;;;;;5039054;28;20201;-86
2022/08/16 03:38:33;;;;;;;6.10;4.47;;;16.50;99.90;;;;;;5039210;28;20177;-86
2022/08/16 03:41:03;;;;;;;6.47;4.30;;;16.30;99.90;;;;;;5037873;28;20181;-86
2022/08/16 03:43:29;;;;;;;5.30;4.67;;;16.10;99.90;;;;;;5038066;28;20213;-86
2022/08/16 03:45:56;;;;;;;4.37;3.83;;;16.10;99.90;;;;;;5037715;28;20261;-87
2022/08/16 03:48:31;;;;;;;4.60;4.20;;;16.00;99.90;;;;;;5038335;28;20239;-86
2022/08/16 03:51:01;;;;;;;5.40;4.60;;;15.90;99.90;;;;;;5037829;28;20174;-86
2022/08/16 03:53:31;;;;;;;6.47;4.00;;;15.90;99.90;;;;;;5038217;28;20176;-86
2022/08/16 03:55:57;;;;;;;5.47;4.37;;;15.90;99.90;;;;;;5037491;28;20178;-86
2022/08/16 03:58:23;;;;;;;4.90;4.33;;;15.90;99.90;;;;;;5037463;28;20178;-86
2022/08/16 04:00:54;;;;;;;4.90;4.50;;;15.90;99.90;;;;;;5036820;28;20180;-86
2022/08/16 04:03:21;;;;;;;5.93;4.67;;;16.00;99.90;;;;;;5037449;28;20206;-86
2022/08/16 04:05:49;;;;;;;6.13;4.67;;;16.00;99.90;;;;;;5037562;28;20209;-86
2022/08/16 04:08:20;;;;;;;5.10;4.40;;;16.10;99.90;;;;;;5037688;28;20185;-87
2022/08/16 04:10:50;;;;;;;5.23;4.73;;;16.00;99.90;;;;;;5053970;28;20253;-86
2022/08/16 04:13:16;;;;;;;5.73;5.13;;;15.90;99.90;;;;;;5037033;28;20209;-86
2022/08/16 04:15:42;;;;;;;5.83;4.77;;;15.90;99.90;;;;;;5054071;28;20177;-86
2022/08/16 04:18:22;;;;;;;5.37;4.50;;;15.90;99.90;;;;;;5039681;28;20170;-86
2022/08/16 04:20:51;;;;;;;6.20;4.70;;;16.00;99.90;;;;;;5037059;28;20210;-87
2022/08/16 04:23:22;;;;;;;5.90;4.83;;;16.00;99.90;;;;;;5037532;28;20229;-86
2022/08/16 04:25:49;;;;;;;4.70;4.20;;;16.00;99.90;;;;;;5037163;28;20247;-86
2022/08/16 04:28:16;;;;;;;4.87;4.47;;;16.10;99.90;;;;;;5036900;28;20209;-87
2022/08/16 04:30:42;;;;;;;7.07;4.63;;;16.10;99.90;;;;;;5053633;28;20174;-86
2022/08/16 04:33:09;;;;;;;5.80;4.70;;;16.20;99.90;;;;;;5036958;28;20198;-86
2022/08/16 04:35:38;;;;;;;6.10;4.23;;;16.10;99.90;;;;;;5037215;28;20174;-86
2022/08/16 04:38:04;;;;;;;5.20;4.70;;;16.10;99.90;;;;;;5036796;28;20182;-86
2022/08/16 04:40:38;;;;;;;4.77;4.33;;;16.10;99.90;;;;;;5053150;28;20185;-86
2022/08/16 04:43:05;;;;;;;6.27;4.50;;;16.10;99.90;;;;;;5036927;28;20221;-86
2022/08/16 04:45:31;;;;;;;6.53;4.40;;;16.10;99.90;;;;;;5036890;28;20178;-86
2022/08/16 04:47:58;;;;;;;5.70;4.80;;;16.10;99.90;;;;;;5053257;28;20174;-86
2022/08/16 04:50:29;;;;;;;5.43;4.70;;;16.10;99.90;;;;;;5037057;28;20166;-86
2022/08/16 04:53:16;;;;;;;5.57;4.97;;;16.20;99.90;;;;;;5039456;28;20232;-86
2022/08/16 04:55:44;;;;;;;5.10;4.43;;;16.20;99.90;;;;;;5036888;28;20302;-86
2022/08/16 04:58:10;;;;;;;5.73;4.30;;;16.30;99.90;;;;;;5036591;28;20188;-86
2022/08/16 05:00:38;;;;;;;5.30;4.60;;;16.30;99.90;;;;;;5035770;28;20186;-86
2022/08/16 05:03:10;;;;;;;7.93;4.60;;;16.40;99.90;;;;;;5036701;28;20201;-86
2022/08/16 05:05:48;;;;;;;5.30;4.77;;;16.40;99.90;;;;;;5037650;28;20162;-86
2022/08/16 05:08:19;;;;;;;7.07;5.10;;;16.50;99.90;;;;;;5037102;28;20169;-86
2022/08/16 05:10:50;;;;;;;4.87;4.47;;;16.60;99.90;;;;;;5052683;28;20166;-86
2022/08/16 05:13:17;;;;;;;5.60;5.10;;;16.60;99.90;;;;;;5036430;28;20198;-87
2022/08/16 05:15:45;;;;;;;6.17;4.97;;;16.70;99.90;;;;;;5036497;28;20174;-86
2022/08/16 05:18:13;;;;;;;5.57;5.07;;;16.70;99.90;;;;;;5053108;28;20231;-86
2022/08/16 05:20:49;;;;;;;5.10;4.60;;;16.70;99.90;;;;;;5040331;28;20174;-86
2022/08/16 05:23:18;;;;;;;4.97;4.30;;;16.80;99.90;;;;;;5036453;28;20206;-86
2022/08/16 05:25:46;;;;;;;5.37;4.87;;;16.90;99.90;;;;;;5057615;28;20198;-86
2022/08/16 05:28:12;;;;;;;5.80;4.70;;;16.90;99.90;;;;;;5036274;28;20186;-86
2022/08/16 05:30:43;;;;;;;5.67;4.83;;;16.90;99.90;;;;;;5036393;28;20192;-86
2022/08/16 05:33:49;;;;;;;5.83;4.83;;;17.00;99.90;;;;;;5036079;28;20293;-86
2022/08/16 05:36:15;;;;;;;4.87;4.37;;;17.00;99.90;;;;;;5035743;28;20170;-87
2022/08/16 05:38:46;;;;;;;6.57;4.73;;;17.10;99.90;;;;;;5036712;28;20166;-86
2022/08/16 05:41:13;;;;;;;6.57;5.50;;;17.20;99.90;;;;;;5035317;28;20177;-86
2022/08/16 05:43:41;;;;;;;6.23;5.63;;;17.20;99.90;;;;;;5052159;28;20218;-86
2022/08/16 05:46:08;;;;;;;6.80;5.47;;;17.30;99.90;;;;;;5035638;28;20265;-86
2022/08/16 05:48:35;;;;;;;6.20;5.20;;;17.30;99.90;;;;;;5035775;28;20198;-87
2022/08/16 05:51:05;;;;;;;5.43;4.93;;;17.40;99.90;;;;;;5036116;28;20257;-87
2022/08/16 05:53:33;;;;;;;6.73;5.00;;;17.50;99.90;;;;;;5035667;28;20188;-87
2022/08/16 05:56:11;;;;;;;6.27;5.67;;;17.60;99.90;;;;;;5037387;28;20176;-87
2022/08/16 05:58:40;;;;;;;5.87;5.27;;;17.60;99.90;;;;;;5036132;28;20181;-86
2022/08/16 06:01:13;;;;;;;5.30;4.80;;;17.70;99.90;;;;;;5034757;28;20266;-87
2022/08/16 06:03:42;;;;;;;6.10;5.63;;;17.80;99.90;;;;;;5035540;28;20225;-87
2022/08/16 06:06:19;;;;;;;6.30;5.70;;;17.80;99.90;;;;;;5051779;28;20179;-87
2022/08/16 06:08:45;;;;;;;6.73;5.70;;;17.80;99.90;;;;;;5035254;28;20183;-88
2022/08/16 06:11:13;;;;;;;6.45;5.70;;;18.00;99.90;;;;;;5035404;28;20196;-88
2022/08/16 06:13:41;;;;;;;5.75;5.00;;;18.10;99.90;;;;;;5035329;28;20184;-87
2022/08/16 06:16:08;;;;;;;5.97;5.47;;;18.10;99.90;;;;;;5035121;28;20189;-87
2022/08/16 06:18:38;;;;;;;5.95;5.45;;;18.20;99.90;;;;;;5035627;28;20645;-88
2022/08/16 06:21:04;;;;;;;6.90;5.03;;;18.30;99.90;;;;;;5035066;28;20180;-87
2022/08/16 06:23:43;;;;;;;5.22;4.70;;;18.50;99.90;;;;;;5034789;28;20681;-87
2022/08/16 06:26:10;;;;;;;5.47;4.97;;;18.60;99.90;;;;;;5035126;28;20185;-87
2022/08/16 06:28:40;;;;;;;7.28;4.82;;;18.80;99.90;;;;;;5035405;28;20379;-87
2022/08/16 06:31:28;;;;;;;5.53;4.90;;;18.90;99.90;;;;;;5035026;28;20162;-87
2022/08/16 06:33:56;;;;;;;5.22;4.68;;;19.10;99.90;;;;;;5035287;28;20174;-87
2022/08/16 06:36:25;;;;;;;7.13;5.40;;;19.20;99.90;;;;;;5034706;28;20182;-87
2022/08/16 06:39:10;;;;;;;5.45;4.93;;;19.30;99.90;;;;;;5036620;28;20170;-87
2022/08/16 06:42:05;;;;;;;7.43;5.13;;;19.50;99.90;;;;;;5048156;28;20584;-87
2022/08/16 06:44:57;;;;;;;5.57;5.05;;;19.60;99.90;;;;;;5036616;28;20181;-88
2022/08/16 06:47:49;;;;;;;5.75;4.78;;;19.70;99.90;;;;;;5040441;28;20174;-88
2022/08/16 06:50:15;;;;;;;5.50;4.22;;;19.90;99.90;;;;;;5037417;28;20178;-87
2022/08/16 06:52:45;;;;;;;5.60;5.05;;;20.00;99.90;;;;;;5039395;28;20193;-87
2022/08/16 06:55:14;;;;;;;6.38;4.88;;;20.20;99.90;;;;;;5060738;28;20188;-89
2022/08/16 06:57:45;;;;;;;6.25;4.95;;;20.30;99.90;;;;;;5039426;28;20162;-88
2022/08/16 07:00:14;;;;;;;5.18;4.65;;;20.40;99.90;;;;;;5038790;28;20833;-88
2022/08/16 07:02:49;;;;;;;8.45;4.88;;;20.60;99.90;;;;;;5039921;28;20686;-87
2022/08/16 07:05:16;;;;;;;6.10;4.80;;;20.70;99.90;;;;;;5038502;28;20202;-88
2022/08/16 07:07:57;;;;;;;5.13;4.50;;;20.80;99.90;;;;;;5040199;28;20181;-88
2022/08/16 07:10:26;;;;;;;5.82;5.03;;;20.90;99.90;;;;;;5038622;28;20173;-87
2022/08/16 07:12:52;;;;;;;6.40;5.22;;;21.00;99.90;;;;;;5038298;28;20205;-87
2022/08/16 07:15:19;;;;;;;6.70;5.15;;;21.00;99.90;;;;;;5038468;28;20723;-88
2022/08/16 07:17:48;;;;;;;5.20;4.70;;;21.20;99.90;;;;;;5055348;28;20185;-88
2022/08/16 07:20:18;;;;;;;6.68;5.22;;;21.20;99.90;;;;;;5038086;28;20189;-87
2022/08/16 07:22:50;;;;;;;5.95;4.88;;;21.20;99.90;;;;;;5039589;28;20205;-88
2022/08/16 07:25:23;;;;;;;5.28;4.82;;;21.40;99.90;;;;;;5039213;28;20193;-87
2022/08/16 07:27:50;;;;;;;6.47;4.90;;;21.40;99.90;;;;;;5038844;28;20215;-88
2022/08/16 07:30:20;;;;;;;6.35;5.57;;;21.50;99.90;;;;;;5038521;28;20271;-88
2022/08/16 07:32:46;;;;;;;7.75;4.70;;;21.60;99.90;;;;;;5037855;28;20241;-88
2022/08/16 07:35:12;;;;;;;5.13;4.63;;;21.60;99.90;;;;;;5038084;28;20271;-88
2022/08/16 07:37:38;;;;;;;6.10;4.80;;;21.70;99.90;;;;;;5038097;28;20209;-87
2022/08/16 07:40:13;;;;;;;5.30;4.80;;;21.90;99.90;;;;;;5038746;28;20197;-87
2022/08/16 07:42:42;;;;;;;5.85;5.00;;;22.00;99.90;;;;;;5038001;28;20206;-87
2022/08/16 07:45:09;;;;;;;5.00;4.50;;;22.10;99.90;;;;;;5037683;28;20181;-88
2022/08/16 07:47:35;;;;;;;5.00;4.60;;;22.20;99.90;;;;;;5037529;28;20178;-87
2022/08/16 07:50:01;;;;;;;5.55;4.85;;;22.30;99.90;;;;;;5037544;28;20269;-87
2022/08/16 07:52:29;;;;;;;5.78;4.30;;;22.50;99.90;;;;;;5054100;28;20198;-88
2022/08/16 07:54:56;;;;;;;4.80;4.40;;;22.60;99.90;;;;;;5037595;28;20185;-87
2022/08/16 07:57:22;;;;;;;7.13;4.63;;;22.70;99.90;;;;;;5036890;28;20192;-88
2022/08/16 07:59:48;;;;;;;5.93;4.65;;;22.90;99.90;;;;;;5037676;28;20216;-88
2022/08/16 08:02:15;;;;;;;5.43;4.30;;;23.00;99.90;;;;;;5037087;28;20217;-88
2022/08/16 08:04:43;;;;;;;4.68;4.28;;;23.20;99.90;;;;;;5037852;28;20193;-87
2022/08/16 08:07:11;;;;;;;6.97;4.70;;;23.30;99.90;;;;;;5037307;28;20205;-88
2022/08/16 08:09:37;;;;;;;8.40;4.35;;;23.40;99.90;;;;;;5037193;28;20170;-88
2022/08/16 08:12:03;;;;;;;7.20;4.75;;;23.50;99.90;;;;;;5036940;28;20197;-88
2022/08/16 08:14:35;;;;;;;6.55;4.32;;;23.50;99.90;;;;;;5037966;28;20198;-88
2022/08/16 08:17:06;;;;;;;5.50;4.30;;;23.70;99.90;;;;;;5037190;28;20261;-88
2022/08/16 08:19:36;;;;;;;6.82;4.45;;;23.90;99.90;;;;;;5037497;28;20180;-88
2022/08/16 08:22:03;;;;;;;5.70;5.20;;;24.10;99.90;;;;;;5036728;28;20190;-87
2022/08/16 08:24:38;;;;;;;5.75;4.50;;;24.10;99.90;;;;;;5038194;28;20284;-88
2022/08/16 08:27:07;;;;;;;8.73;4.55;;;24.20;99.90;;;;;;5037598;28;20174;-88
2022/08/16 08:29:35;;;;;;;6.65;4.63;;;24.20;99.90;;;;;;5036988;28;20178;-88
2022/08/16 08:32:01;;;;;;;4.70;4.13;;;24.30;99.90;;;;;;5036964;28;20201;-87
2022/08/16 08:34:28;;;;;;;7.05;5.05;;;24.40;99.90;;;;;;5036842;28;20268;-88
2022/08/16 08:36:54;;;;;;;6.03;4.30;;;24.50;99.90;;;;;;5036695;28;20224;-88
2022/08/16 08:39:40;;;;;;;5.15;3.78;;;24.60;99.90;;;;;;5039454;28;20586;-88
2022/08/16 08:42:07;;;;;;;5.63;4.45;;;25.00;99.90;;;;;;5052909;28;20305;-88
2022/08/16 08:44:35;;;;;;;7.13;4.97;;;25.30;99.90;;;;;;5036880;28;20181;-88
2022/08/16 08:47:07;;;;;;;5.30;4.60;;;25.50;99.90;;;;;;5037758;28;20514;-88
2022/08/16 08:49:34;;;;;;;5.85;4.20;;;25.40;99.90;;;;;;5036442;28;20175;-88
2022/08/16 08:52:03;;;;;;;5.15;4.60;;;25.70;99.90;;;;;;5036100;28;20275;-88
2022/08/16 08:54:29;;;;;;;4.20;3.75;;;25.70;99.90;;;;;;5036437;28;20185;-88
2022/08/16 08:56:56;;;;;;;8.50;4.32;;;25.80;99.90;;;;;;5054187;28;20170;-87
2022/08/16 08:59:28;;;;;;;9.07;4.63;;;25.90;99.90;;;;;;5037195;28;20170;-88
2022/08/16 09:02:13;;;;;;;4.40;4.00;;;25.60;99.90;;;;;;5035645;28;20200;-88
2022/08/16 09:04:45;;;;;;;4.85;3.97;;;25.40;99.90;;;;;;5036730;28;20179;-88
2022/08/16 09:07:10;;;;;;;4.40;4.00;;;25.20;99.90;;;;;;5035589;28;20192;-88
2022/08/16 09:09:38;;;;;;;5.68;3.97;;;25.20;99.90;;;;;;5035383;28;20181;-88
2022/08/16 09:12:07;;;;;;;4.47;4.07;;;25.30;99.90;;;;;;5036315;28;20237;-88
2022/08/16 09:14:44;;;;;;;6.40;4.15;;;25.20;99.90;;;;;;5037670;28;20237;-88
2022/08/16 09:17:11;;;;;;;4.90;4.15;;;25.10;99.90;;;;;;5036297;28;20189;-88
2022/08/16 09:19:37;;;;;;;4.15;3.85;;;25.10;99.90;;;;;;5036265;28;20182;-88
2022/08/16 09:22:05;;;;;;;5.20;4.00;;;25.10;99.90;;;;;;5052594;28;20206;-88
2022/08/16 09:24:32;;;;;;;4.43;3.97;;;25.30;99.90;;;;;;5035762;28;20193;-88
2022/08/16 09:26:58;;;;;;;4.55;4.00;;;25.10;99.90;;;;;;5036103;28;20162;-88
2022/08/16 09:29:24;;;;;;;6.60;4.00;;;25.30;99.90;;;;;;5036000;28;20260;-88
2022/08/16 09:31:50;;;;;;;6.85;4.10;;;25.60;99.90;;;;;;5036043;28;20252;-88
2022/08/16 09:34:16;;;;;;;4.18;3.78;;;25.70;99.90;;;;;;5035932;28;20178;-88
2022/08/16 09:36:42;;;;;;;5.97;4.22;;;25.80;99.90;;;;;;5035657;28;20229;-88
2022/08/16 09:39:09;;;;;;;3.75;3.42;;;26.00;99.90;;;;;;5035464;28;20248;-88
2022/08/16 09:41:34;;;;;;;4.75;3.83;;;26.30;99.90;;;;;;5035423;28;20220;-88
2022/08/16 09:44:02;;;;;;;5.18;3.90;;;26.60;99.90;;;;;;5035661;28;20213;-88
2022/08/16 09:46:30;;;;;;;4.03;3.60;;;26.80;99.80;;;;;;5035374;28;20178;-88
2022/08/16 09:48:57;;;;;;;5.32;4.05;;;26.90;99.70;;;;;;5035444;28;20198;-88
2022/08/16 09:51:25;;;;;;;4.40;3.95;;;27.10;99.50;;;;;;5034976;28;20185;-88
2022/08/16 09:53:54;;;;;;;4.00;3.70;;;27.40;99.10;;;;;;5035471;28;20182;-88
2022/08/16 09:56:31;;;;;;;4.47;3.70;;;27.40;98.30;;;;;;5051882;28;20182;-88
2022/08/16 09:59:00;;;;;;;7.28;4.20;;;27.10;98.40;;;;;;5035151;28;20185;-88
2022/08/16 10:01:37;;;;;;;4.20;3.80;;;27.00;98.50;;;;;;5034443;28;20203;-88
2022/08/16 10:04:04;;;;;;;3.85;3.55;;;26.90;98.60;;;;;;5035016;28;20201;-88
2022/08/16 10:06:33;;;;;;;4.85;3.80;;;26.80;98.50;;;;;;5035115;28;20245;-88
2022/08/16 10:08:59;;;;;;;4.15;3.75;;;26.80;98.60;;;;;;5051809;28;20163;-87
2022/08/16 10:14:14;;;;;;;4.88;3.72;;;27.30;97.50;;;;;;5051681;28;20268;-88
2022/08/16 10:16:40;;;;;;;5.78;3.88;;;27.40;97.00;;;;;;5035069;28;20312;-88
2022/08/16 10:19:06;;;;;;;4.55;3.53;;;27.60;97.20;;;;;;5034660;28;20185;-88
2022/08/16 10:21:31;;;;;;;5.30;3.95;;;27.60;97.20;;;;;;5034558;28;20205;-88
2022/08/16 10:23:57;;;;;;;3.53;3.22;;;27.80;96.70;;;;;;5035037;28;20259;-88
2022/08/16 10:26:23;;;;;;;3.72;3.42;;;28.00;96.40;;;;;;5034752;28;20229;-88
2022/08/16 10:28:50;;;;;;;3.70;3.40;;;28.20;96.70;;;;;;5034645;28;20184;-88
2022/08/16 10:31:16;;;;;;;5.55;4.05;;;28.30;96.20;;;;;;5033239;28;20655;-88
2022/08/16 10:33:43;;;;;;;6.38;3.85;;;28.20;95.90;;;;;;5034325;28;20190;-88
2022/08/16 10:36:10;;;;;;;3.67;3.38;;;28.20;95.20;;;;;;5051632;28;20206;-88
2022/08/16 10:38:37;;;;;;;4.82;3.70;;;28.50;95.70;;;;;;5034570;28;20261;-88
2022/08/16 10:41:05;;;;;;;4.97;3.80;;;28.70;95.50;;;;;;5034396;28;20185;-88
2022/08/16 10:43:32;;;;;;;5.88;3.95;;;28.80;95.20;;;;;;5034860;28;20209;-88
2022/08/16 10:45:58;;;;;;;6.05;3.60;;;28.50;95.10;;;;;;5034600;28;20174;-88
2022/08/16 10:48:24;;;;;;;4.05;3.65;;;28.50;95.20;;;;;;5034748;28;20613;-88
2022/08/16 10:50:50;;;;;;;3.65;3.35;;;28.60;95.30;;;;;;5034392;28;20205;-88
2022/08/16 10:53:16;;;;;;;4.88;3.65;;;28.60;94.90;;;;;;5035001;28;20208;-88
2022/08/16 10:55:42;;;;;;;6.10;3.80;;;28.50;94.60;;;;;;5034472;28;20182;-88
2022/08/16 10:58:12;;;;;;;8.48;4.00;;;28.20;94.50;;;;;;5034553;28;20185;-88
2022/08/16 11:00:40;;;;;;;4.75;3.60;;;28.00;95.60;;;;;;5034208;28;20189;-88
2022/08/16 11:03:06;;;;;;;4.72;4.10;;;28.00;95.80;;;;;;5033684;28;20214;-88
2022/08/16 11:05:35;;;;;;;3.90;3.50;;;28.20;95.30;;;;;;5034311;28;20178;-88
2022/08/16 11:08:03;;;;;;;4.70;3.10;;;28.40;95.50;;;;;;5034448;28;20200;-88
2022/08/16 11:10:35;;;;;;;6.60;3.60;;;28.70;94.40;;;;;;5050682;28;20232;-88
2022/08/16 11:13:02;;;;;;;4.95;3.95;;;28.80;94.20;;;;;;5034292;28;20259;-88
2022/08/16 11:15:28;;;;;;;5.28;4.10;;;28.60;94.00;;;;;;5034372;28;20196;-88
2022/08/16 11:17:55;;;;;;;5.68;3.53;;;28.30;94.40;;;;;;5034425;28;20182;-88
2022/08/16 11:20:21;;;;;;;4.15;3.38;;;27.80;94.70;;;;;;5033981;28;20186;-88
2022/08/16 11:22:48;;;;;;;3.90;3.60;;;27.80;94.80;;;;;;5034354;28;20210;-88
2022/08/16 11:25:19;;;;;;;4.60;3.70;;;28.00;94.10;;;;;;5034242;28;20189;-89
2022/08/16 11:27:45;;;;;;;4.70;3.33;;;28.10;93.50;;;;;;5034772;28;20192;-88
2022/08/16 11:30:14;;;;;;;4.25;3.40;;;28.20;93.60;;;;;;5034003;28;20178;-88
2022/08/16 11:32:43;;;;;;;4.45;3.38;;;28.30;94.00;;;;;;5053242;28;20204;-89
2022/08/16 11:35:21;;;;;;;4.03;3.22;;;28.60;94.50;;;;;;5037650;28;20534;-88
2022/08/16 11:37:51;;;;;;;5.30;3.40;;;28.70;93.30;;;;;;5037873;28;20186;-88
2022/08/16 11:40:17;;;;;;;3.40;3.10;;;28.80;92.70;;;;;;5037587;28;20193;-88
2022/08/16 11:42:43;;;;;;;3.33;3.03;;;28.60;92.20;;;;;;5054393;28;20231;-88
2022/08/16 11:45:10;;;;;;;3.80;3.45;;;28.50;92.50;;;;;;5037824;28;20177;-88
2022/08/16 11:47:36;;;;;;;3.67;3.38;;;28.40;92.40;;;;;;5038130;28;20178;-88
2022/08/16 11:50:07;;;;;;;4.00;3.70;;;28.60;92.90;;;;;;5055254;28;20246;-88
2022/08/16 11:52:34;;;;;;;4.60;3.70;;;28.90;92.40;;;;;;5037617;28;20205;-88
2022/08/16 11:55:00;;;;;;;3.85;3.53;;;29.20;91.30;;;;;;5037857;28;20216;-88
2022/08/16 11:57:26;;;;;;;4.57;3.72;;;29.70;91.40;;;;;;5037663;28;20185;-88
2022/08/16 11:59:52;;;;;;;4.65;3.35;;;29.80;90.20;;;;;;5037318;28;20178;-89
2022/08/16 12:02:18;;;;;;;4.43;3.30;;;29.90;90.00;;;;;;5037263;28;20206;-88
2022/08/16 12:04:44;;;;;;;3.92;3.50;;;29.90;90.20;;;;;;5037661;28;20185;-88
2022/08/16 12:07:11;;;;;;;3.90;3.05;;;30.00;89.10;;;;;;5037700;28;20174;-89
2022/08/16 12:09:37;;;;;;;3.97;3.47;;;30.30;90.00;;;;;;5037617;28;20263;-89
2022/08/16 12:12:04;;;;;;;3.33;3.10;;;30.70;89.10;;;;;;5036945;28;20223;-89
2022/08/16 12:14:32;;;;;;;6.38;3.40;;;30.90;87.80;;;;;;5037234;28;20249;-88
2022/08/16 12:17:03;;;;;;;4.15;3.33;;;30.80;87.80;;;;;;5037310;28;20232;-88
2022/08/16 12:19:30;;;;;;;3.15;2.85;;;30.80;86.80;;;;;;5037117;28;20163;-88
2022/08/16 12:21:56;;;;;;;3.65;3.15;;;31.00;86.80;;;;;;5036956;28;20201;-88
2022/08/16 12:24:22;;;;;;;4.53;2.95;;;31.30;86.40;;;;;;5036908;28;20184;-88
2022/08/16 12:26:48;;;;;;;3.60;3.03;;;31.40;84.80;;;;;;5036938;28;20181;-88
2022/08/16 12:29:14;;;;;;;4.15;3.20;;;31.40;84.70;;;;;;5036841;28;20174;-88
2022/08/16 12:31:42;;;;;;;3.70;3.35;;;31.80;84.70;;;;;;5036162;28;20190;-88
2022/08/16 12:34:08;;;;;;;4.82;3.03;;;32.00;83.90;;;;;;5037077;28;20186;-89
2022/08/16 12:36:34;;;;;;;4.10;3.30;;;32.10;82.30;;;;;;5053427;28;20534;-88
2022/08/16 12:39:05;;;;;;;4.68;2.95;;;31.80;83.50;;;;;;5036991;28;20193;-88
2022/08/16 12:41:33;;;;;;;4.05;2.88;;;32.00;83.60;;;;;;5036677;28;20229;-88
2022/08/16 12:43:58;;;;;;;3.72;3.03;;;32.20;83.10;;;;;;5036722;28;20198;-88
2022/08/16 12:46:25;;;;;;;4.10;3.35;;;32.40;82.20;;;;;;5036573;28;20265;-88
2022/08/16 12:48:57;;;;;;;4.50;3.28;;;32.60;81.80;;;;;;5036957;28;20260;-88
2022/08/16 12:51:27;;;;;;;5.03;3.30;;;32.70;81.50;;;;;;5036083;28;20170;-88
2022/08/16 12:53:56;;;;;;;3.88;2.90;;;32.40;82.20;;;;;;5036346;28;20170;-88
2022/08/16 12:56:27;;;;;;;4.05;3.08;;;32.20;83.00;;;;;;5036427;28;20177;-88
2022/08/16 12:58:55;;;;;;;3.08;2.78;;;32.30;81.00;;;;;;5036556;28;20196;-88